sensor_id;sensor_type;location;lat;lon;timestamp;temperature;humidity
18043;DHT22;9146;48.074;11.968;2023-07-24T00:00:08;17.70;99.90
18043;DHT22;9146;48.074;11.968;2023-07-24T00:02:35;17.70;99.90
18043;DHT22;9146;48.074;11.968;2023-07-24T00:05:04;17.70;99.90
18043;DHT22;9146;48.074;11.968;2023-07-24T00:07:31;17.70;99.90
18043;DHT22;9146;48.074;11.968;2023-07-24T00:09:58;17.70;99.90
18043;DHT22;9146;48.074;11.968;2023-07-24T00:12:25;17.60;99.90
18043;DHT22;9146;48.074;11.968;2023-07-24T00:14:52;17.60;99.90
18043;DHT22;9146;48.074;11.968;2023-07-24T00:17:20;17.60;99.90
18043;DHT22;9146;48.074;11.968;2023-07-24T00:19:46;17.60;99.90
18043;DHT22;9146;48.074;11.968;2023-07-24T00:22:16;17.60;99.90
18043;DHT22;9146;48.074;11.968;2023-07-24T00:24:42;17.60;99.90
18043;DHT22;9146;48.074;11.968;2023-07-24T00:27:09;17.60;99.90
18043;DHT22;9146;48.074;11.968;2023-07-24T00:29:36;17.50;99.90
18043;DHT22;9146;48.074;11.968;2023-07-24T00:32:03;17.60;99.90
18043;DHT22;9146;48.074;11.968;2023-07-24T00:34:30;17.60;99.90
18043;DHT22;9146;48.074;11.968;2023-07-24T00:36:57;17.50;99.90
18043;DHT22;9146;48.074;11.968;2023-07-24T00:39:26;17.50;99.90
18043;DHT22;9146;48.074;11.968;2023-07-24T00:41:54;17.50;99.90
18043;DHT22;9146;48.074;11.968;2023-07-24T00:44:21;17.50;99.90
18043;DHT22;9146;48.074;11.968;2023-07-24T00:46:48;17.40;99.90
18043;DHT22;9146;48.074;11.968;2023-07-24T00:49:15;17.40;99.90
18043;DHT22;9146;48.074;11.968;2023-07-24T00:51:42;17.40;99.90
18043;DHT22;9146;48.074;11.968;2023-07-24T00:54:11;17.40;99.90
18043;DHT22;9146;48.074;11.968;2023-07-24T00:56:40;17.30;99.90
18043;DHT22;9146;48.074;11.968;2023-07-24T00:59:07;17.30;99.90
18043;DHT22;9146;48.074;11.968;2023-07-24T01:01:34;17.30;99.90
18043;DHT22;9146;48.074;11.968;2023-07-24T01:04:02;17.30;99.90
18043;DHT22;9146;48.074;11.968;2023-07-24T01:06:29;17.20;99.90
18043;DHT22;9146;48.074;11.968;2023-07-24T01:08:57;17.20;99.90
18043;DHT22;9146;48.074;11.968;2023-07-24T01:11:27;17.20;99.90
18043;DHT22;9146;48.074;11.968;2023-07-24T01:14:00;17.20;99.90
18043;DHT22;9146;48.074;11.968;2023-07-24T01:16:32;17.20;99.90
18043;DHT22;9146;48.074;11.968;2023-07-24T01:19:01;17.20;99.90
18043;DHT22;9146;48.074;11.968;2023-07-24T01:24:23;17.20;99.90
18043;DHT22;9146;48.074;11.968;2023-07-24T01:26:57;17.30;99.90
18043;DHT22;9146;48.074;11.968;2023-07-24T01:29:24;17.30;99.90
18043;DHT22;9146;48.074;11.968;2023-07-24T01:31:51;17.40;99.90
18043;DHT22;9146;48.074;11.968;2023-07-24T01:34:18;17.40;99.90
18043;DHT22;9146;48.074;11.968;2023-07-24T01:36:45;17.40;99.90
18043;DHT22;9146;48.074;11.968;2023-07-24T01:39:13;17.40;99.90
18043;DHT22;9146;48.074;11.968;2023-07-24T01:41:41;17.40;99.90
18043;DHT22;9146;48.074;11.968;2023-07-24T01:44:09;17.50;99.90
18043;DHT22;9146;48.074;11.968;2023-07-24T01:46:36;17.50;99.90
18043;DHT22;9146;48.074;11.968;2023-07-24T01:49:03;17.60;99.90
18043;DHT22;9146;48.074;11.968;2023-07-24T01:51:30;17.60;99.90
18043;DHT22;9146;48.074;11.968;2023-07-24T01:53:57;17.50;99.90
18043;DHT22;9146;48.074;11.968;2023-07-24T01:56:24;17.50;99.90
18043;DHT22;9146;48.074;11.968;2023-07-24T01:58:51;17.50;99.90
18043;DHT22;9146;48.074;11.968;2023-07-24T02:01:19;17.40;99.90
18043;DHT22;9146;48.074;11.968;2023-07-24T02:03:46;17.40;99.90
18043;DHT22;9146;48.074;11.968;2023-07-24T02:06:13;17.30;99.90
18043;DHT22;9146;48.074;11.968;2023-07-24T02:08:40;17.20;99.90
18043;DHT22;9146;48.074;11.968;2023-07-24T02:11:12;17.20;99.90
18043;DHT22;9146;48.074;11.968;2023-07-24T02:13:40;17.10;99.90
18043;DHT22;9146;48.074;11.968;2023-07-24T02:16:06;17.10;99.90
18043;DHT22;9146;48.074;11.968;2023-07-24T02:18:35;17.00;99.90
18043;DHT22;9146;48.074;11.968;2023-07-24T02:21:02;17.00;99.90
18043;DHT22;9146;48.074;11.968;2023-07-24T02:23:29;17.00;99.90
18043;DHT22;9146;48.074;11.968;2023-07-24T02:25:55;16.90;99.90
18043;DHT22;9146;48.074;11.968;2023-07-24T02:28:22;16.90;99.90
18043;DHT22;9146;48.074;11.968;2023-07-24T02:30:49;16.90;99.90
18043;DHT22;9146;48.074;11.968;2023-07-24T02:33:17;16.80;99.90
18043;DHT22;9146;48.074;11.968;2023-07-24T02:35:45;16.80;99.90
18043;DHT22;9146;48.074;11.968;2023-07-24T02:38:12;16.80;99.90
18043;DHT22;9146;48.074;11.968;2023-07-24T02:40:40;16.80;99.90
18043;DHT22;9146;48.074;11.968;2023-07-24T02:43:07;16.80;99.90
18043;DHT22;9146;48.074;11.968;2023-07-24T02:45:34;16.70;99.90
18043;DHT22;9146;48.074;11.968;2023-07-24T02:48:01;16.80;99.90
18043;DHT22;9146;48.074;11.968;2023-07-24T02:50:28;16.90;99.90
18043;DHT22;9146;48.074;11.968;2023-07-24T02:52:59;17.00;99.90
18043;DHT22;9146;48.074;11.968;2023-07-24T02:55:27;17.20;99.90
18043;DHT22;9146;48.074;11.968;2023-07-24T02:57:54;17.20;99.90
18043;DHT22;9146;48.074;11.968;2023-07-24T03:00:21;17.30;99.90
18043;DHT22;9146;48.074;11.968;2023-07-24T03:02:48;17.40;99.90
18043;DHT22;9146;48.074;11.968;2023-07-24T03:05:15;17.50;99.90
18043;DHT22;9146;48.074;11.968;2023-07-24T03:07:42;17.50;99.90
18043;DHT22;9146;48.074;11.968;2023-07-24T03:10:11;17.60;99.90
18043;DHT22;9146;48.074;11.968;2023-07-24T03:12:37;17.60;99.90
18043;DHT22;9146;48.074;11.968;2023-07-24T03:15:05;17.70;99.90
18043;DHT22;9146;48.074;11.968;2023-07-24T03:17:33;17.70;99.90
18043;DHT22;9146;48.074;11.968;2023-07-24T03:20:08;17.70;99.90
18043;DHT22;9146;48.074;11.968;2023-07-24T03:22:35;17.70;99.90
18043;DHT22;9146;48.074;11.968;2023-07-24T03:25:02;17.80;99.90
18043;DHT22;9146;48.074;11.968;2023-07-24T03:27:29;17.80;99.90
18043;DHT22;9146;48.074;11.968;2023-07-24T03:29:56;17.80;99.90
18043;DHT22;9146;48.074;11.968;2023-07-24T03:32:23;18.00;99.90
18043;DHT22;9146;48.074;11.968;2023-07-24T03:34:51;18.00;99.90
18043;DHT22;9146;48.074;11.968;2023-07-24T03:37:18;18.10;99.90
18043;DHT22;9146;48.074;11.968;2023-07-24T03:39:45;18.00;99.90
18043;DHT22;9146;48.074;11.968;2023-07-24T03:42:23;17.70;99.90
18043;DHT22;9146;48.074;11.968;2023-07-24T03:44:52;17.30;99.90
18043;DHT22;9146;48.074;11.968;2023-07-24T03:47:18;16.90;99.90
18043;DHT22;9146;48.074;11.968;2023-07-24T03:49:45;16.60;99.90
18043;DHT22;9146;48.074;11.968;2023-07-24T03:52:12;16.40;99.90
18043;DHT22;9146;48.074;11.968;2023-07-24T03:54:39;16.20;99.90
18043;DHT22;9146;48.074;11.968;2023-07-24T03:57:06;16.10;99.90
18043;DHT22;9146;48.074;11.968;2023-07-24T03:59:33;16.10;99.90
18043;DHT22;9146;48.074;11.968;2023-07-24T04:02:02;16.00;99.90
18043;DHT22;9146;48.074;11.968;2023-07-24T04:04:29;16.00;99.90
18043;DHT22;9146;48.074;11.968;2023-07-24T04:06:56;16.00;99.90
18043;DHT22;9146;48.074;11.968;2023-07-24T04:09:23;16.00;99.90
18043;DHT22;9146;48.074;11.968;2023-07-24T04:11:49;16.00;99.90
18043;DHT22;9146;48.074;11.968;2023-07-24T04:14:16;16.00;99.90
18043;DHT22;9146;48.074;11.968;2023-07-24T04:16:43;16.00;99.90
18043;DHT22;9146;48.074;11.968;2023-07-24T04:19:11;16.00;99.90
18043;DHT22;9146;48.074;11.968;2023-07-24T04:21:38;16.10;99.90
18043;DHT22;9146;48.074;11.968;2023-07-24T04:24:05;16.10;99.90
18043;DHT22;9146;48.074;11.968;2023-07-24T04:26:32;16.20;99.90
18043;DHT22;9146;48.074;11.968;2023-07-24T04:28:59;16.20;99.90
18043;DHT22;9146;48.074;11.968;2023-07-24T04:31:26;16.30;99.90
18043;DHT22;9146;48.074;11.968;2023-07-24T04:33:53;16.30;99.90
18043;DHT22;9146;48.074;11.968;2023-07-24T04:36:21;16.40;99.90
18043;DHT22;9146;48.074;11.968;2023-07-24T04:38:48;16.40;99.90
18043;DHT22;9146;48.074;11.968;2023-07-24T04:41:15;16.50;99.90
18043;DHT22;9146;48.074;11.968;2023-07-24T04:43:44;16.50;99.90
18043;DHT22;9146;48.074;11.968;2023-07-24T04:46:10;16.60;99.90
18043;DHT22;9146;48.074;11.968;2023-07-24T04:48:37;16.70;99.90
18043;DHT22;9146;48.074;11.968;2023-07-24T04:51:04;16.70;99.90
18043;DHT22;9146;48.074;11.968;2023-07-24T04:53:32;16.70;99.90
18043;DHT22;9146;48.074;11.968;2023-07-24T04:55:59;16.80;99.90
18043;DHT22;9146;48.074;11.968;2023-07-24T04:58:26;16.80;99.90
18043;DHT22;9146;48.074;11.968;2023-07-24T05:00:53;16.80;99.90
18043;DHT22;9146;48.074;11.968;2023-07-24T05:03:20;16.80;99.90
18043;DHT22;9146;48.074;11.968;2023-07-24T05:05:54;16.90;99.90
18043;DHT22;9146;48.074;11.968;2023-07-24T05:08:22;16.90;99.90
18043;DHT22;9146;48.074;11.968;2023-07-24T05:10:55;17.00;99.90
18043;DHT22;9146;48.074;11.968;2023-07-24T05:13:22;17.00;99.90
18043;DHT22;9146;48.074;11.968;2023-07-24T05:15:49;17.10;99.90
18043;DHT22;9146;48.074;11.968;2023-07-24T05:18:15;17.20;99.90
18043;DHT22;9146;48.074;11.968;2023-07-24T05:20:44;17.30;99.90
18043;DHT22;9146;48.074;11.968;2023-07-24T05:23:11;17.50;99.90
18043;DHT22;9146;48.074;11.968;2023-07-24T05:25:38;17.60;99.90
18043;DHT22;9146;48.074;11.968;2023-07-24T05:28:07;17.80;99.90
18043;DHT22;9146;48.074;11.968;2023-07-24T05:30:34;17.90;99.90
18043;DHT22;9146;48.074;11.968;2023-07-24T05:33:01;17.90;99.90
18043;DHT22;9146;48.074;11.968;2023-07-24T05:35:28;18.00;99.90
18043;DHT22;9146;48.074;11.968;2023-07-24T05:37:55;18.00;99.90
18043;DHT22;9146;48.074;11.968;2023-07-24T05:40:21;18.10;99.90
18043;DHT22;9146;48.074;11.968;2023-07-24T05:42:48;18.20;99.90
18043;DHT22;9146;48.074;11.968;2023-07-24T05:45:17;18.40;99.90
18043;DHT22;9146;48.074;11.968;2023-07-24T05:47:44;18.70;99.90
18043;DHT22;9146;48.074;11.968;2023-07-24T05:50:11;18.90;99.90
18043;DHT22;9146;48.074;11.968;2023-07-24T05:52:40;19.10;99.90
18043;DHT22;9146;48.074;11.968;2023-07-24T05:55:08;19.20;99.90
18043;DHT22;9146;48.074;11.968;2023-07-24T05:57:35;19.30;99.90
18043;DHT22;9146;48.074;11.968;2023-07-24T06:00:03;19.40;99.90
18043;DHT22;9146;48.074;11.968;2023-07-24T06:02:32;19.50;99.90
18043;DHT22;9146;48.074;11.968;2023-07-24T06:04:59;19.70;99.90
18043;DHT22;9146;48.074;11.968;2023-07-24T06:07:26;19.90;99.90
18043;DHT22;9146;48.074;11.968;2023-07-24T06:09:52;20.10;99.90
18043;DHT22;9146;48.074;11.968;2023-07-24T06:12:19;20.30;99.90
18043;DHT22;9146;48.074;11.968;2023-07-24T06:14:46;20.50;99.90
18043;DHT22;9146;48.074;11.968;2023-07-24T06:17:13;20.70;99.90
18043;DHT22;9146;48.074;11.968;2023-07-24T06:19:41;20.80;99.90
18043;DHT22;9146;48.074;11.968;2023-07-24T06:22:09;21.00;99.90
18043;DHT22;9146;48.074;11.968;2023-07-24T06:24:35;21.20;99.90
18043;DHT22;9146;48.074;11.968;2023-07-24T06:27:04;21.40;99.90
18043;DHT22;9146;48.074;11.968;2023-07-24T06:29:32;21.50;99.90
18043;DHT22;9146;48.074;11.968;2023-07-24T06:31:58;21.60;99.90
18043;DHT22;9146;48.074;11.968;2023-07-24T06:34:25;21.60;99.90
18043;DHT22;9146;48.074;11.968;2023-07-24T06:36:53;21.40;99.90
18043;DHT22;9146;48.074;11.968;2023-07-24T06:39:20;21.40;99.90
18043;DHT22;9146;48.074;11.968;2023-07-24T06:41:47;21.40;99.90
18043;DHT22;9146;48.074;11.968;2023-07-24T06:44:14;21.40;99.90
18043;DHT22;9146;48.074;11.968;2023-07-24T06:46:41;21.40;99.90
18043;DHT22;9146;48.074;11.968;2023-07-24T06:49:08;21.50;99.90
18043;DHT22;9146;48.074;11.968;2023-07-24T06:51:35;21.60;99.90
18043;DHT22;9146;48.074;11.968;2023-07-24T06:54:04;21.80;99.90
18043;DHT22;9146;48.074;11.968;2023-07-24T06:56:32;21.90;99.90
18043;DHT22;9146;48.074;11.968;2023-07-24T06:58:59;22.00;99.90
18043;DHT22;9146;48.074;11.968;2023-07-24T07:01:26;22.10;99.90
18043;DHT22;9146;48.074;11.968;2023-07-24T07:03:53;22.10;99.90
18043;DHT22;9146;48.074;11.968;2023-07-24T07:06:20;22.10;99.90
18043;DHT22;9146;48.074;11.968;2023-07-24T07:08:46;22.10;99.90
18043;DHT22;9146;48.074;11.968;2023-07-24T07:11:15;22.20;99.90
18043;DHT22;9146;48.074;11.968;2023-07-24T07:13:42;22.30;99.90
18043;DHT22;9146;48.074;11.968;2023-07-24T07:16:09;22.30;99.90
18043;DHT22;9146;48.074;11.968;2023-07-24T07:18:35;22.30;99.90
18043;DHT22;9146;48.074;11.968;2023-07-24T07:21:02;22.40;99.90
18043;DHT22;9146;48.074;11.968;2023-07-24T07:23:29;22.40;99.90
18043;DHT22;9146;48.074;11.968;2023-07-24T07:25:56;22.60;99.90
18043;DHT22;9146;48.074;11.968;2023-07-24T07:28:24;22.90;99.90
18043;DHT22;9146;48.074;11.968;2023-07-24T07:30:51;23.30;99.90
18043;DHT22;9146;48.074;11.968;2023-07-24T07:33:18;23.80;99.90
18043;DHT22;9146;48.074;11.968;2023-07-24T07:35:47;24.30;99.90
18043;DHT22;9146;48.074;11.968;2023-07-24T07:38:14;24.70;99.90
18043;DHT22;9146;48.074;11.968;2023-07-24T07:40:41;25.00;99.90
18043;DHT22;9146;48.074;11.968;2023-07-24T07:43:08;25.00;99.90
18043;DHT22;9146;48.074;11.968;2023-07-24T07:45:36;25.10;99.90
18043;DHT22;9146;48.074;11.968;2023-07-24T07:48:04;25.10;99.90
18043;DHT22;9146;48.074;11.968;2023-07-24T07:50:31;25.20;99.90
18043;DHT22;9146;48.074;11.968;2023-07-24T07:52:58;25.40;99.90
18043;DHT22;9146;48.074;11.968;2023-07-24T07:55:25;25.30;99.90
18043;DHT22;9146;48.074;11.968;2023-07-24T07:57:52;25.20;99.90
18043;DHT22;9146;48.074;11.968;2023-07-24T08:00:19;25.00;99.90
18043;DHT22;9146;48.074;11.968;2023-07-24T08:02:47;24.70;99.90
18043;DHT22;9146;48.074;11.968;2023-07-24T08:05:14;24.40;99.90
18043;DHT22;9146;48.074;11.968;2023-07-24T08:07:42;24.10;99.90
18043;DHT22;9146;48.074;11.968;2023-07-24T08:10:09;24.00;99.90
18043;DHT22;9146;48.074;11.968;2023-07-24T08:12:36;24.00;99.90
18043;DHT22;9146;48.074;11.968;2023-07-24T08:15:03;24.10;99.90
18043;DHT22;9146;48.074;11.968;2023-07-24T08:17:30;24.20;99.90
18043;DHT22;9146;48.074;11.968;2023-07-24T08:19:59;24.20;99.90
18043;DHT22;9146;48.074;11.968;2023-07-24T08:22:26;24.20;99.90
18043;DHT22;9146;48.074;11.968;2023-07-24T08:24:53;24.30;99.90
18043;DHT22;9146;48.074;11.968;2023-07-24T08:27:20;24.30;99.90
18043;DHT22;9146;48.074;11.968;2023-07-24T08:29:50;24.30;99.90
18043;DHT22;9146;48.074;11.968;2023-07-24T08:32:18;24.30;99.90
18043;DHT22;9146;48.074;11.968;2023-07-24T08:34:45;24.40;99.90
18043;DHT22;9146;48.074;11.968;2023-07-24T08:37:13;24.50;99.90
18043;DHT22;9146;48.074;11.968;2023-07-24T08:39:40;24.60;99.90
18043;DHT22;9146;48.074;11.968;2023-07-24T08:42:09;24.80;99.90
18043;DHT22;9146;48.074;11.968;2023-07-24T08:44:36;24.90;99.90
18043;DHT22;9146;48.074;11.968;2023-07-24T08:47:04;24.90;99.90
18043;DHT22;9146;48.074;11.968;2023-07-24T08:49:32;24.80;99.90
18043;DHT22;9146;48.074;11.968;2023-07-24T08:52:00;24.60;99.90
18043;DHT22;9146;48.074;11.968;2023-07-24T08:54:31;24.30;99.90
18043;DHT22;9146;48.074;11.968;2023-07-24T08:56:59;24.10;99.90
18043;DHT22;9146;48.074;11.968;2023-07-24T08:59:27;23.90;99.90
18043;DHT22;9146;48.074;11.968;2023-07-24T09:01:55;23.60;99.90
18043;DHT22;9146;48.074;11.968;2023-07-24T09:04:22;23.50;99.90
18043;DHT22;9146;48.074;11.968;2023-07-24T09:06:50;23.50;99.90
18043;DHT22;9146;48.074;11.968;2023-07-24T09:09:17;23.40;99.90
18043;DHT22;9146;48.074;11.968;2023-07-24T09:11:49;23.40;99.90
18043;DHT22;9146;48.074;11.968;2023-07-24T09:14:21;23.20;99.90
18043;DHT22;9146;48.074;11.968;2023-07-24T09:16:48;23.10;99.90
18043;DHT22;9146;48.074;11.968;2023-07-24T09:19:19;23.00;99.90
18043;DHT22;9146;48.074;11.968;2023-07-24T09:21:46;22.90;99.90
18043;DHT22;9146;48.074;11.968;2023-07-24T09:24:14;22.80;99.90
18043;DHT22;9146;48.074;11.968;2023-07-24T09:26:51;22.70;99.90
18043;DHT22;9146;48.074;11.968;2023-07-24T09:29:19;22.60;99.90
18043;DHT22;9146;48.074;11.968;2023-07-24T09:31:46;22.60;99.90
18043;DHT22;9146;48.074;11.968;2023-07-24T09:34:17;22.60;99.90
18043;DHT22;9146;48.074;11.968;2023-07-24T09:36:44;22.70;99.90
18043;DHT22;9146;48.074;11.968;2023-07-24T09:39:11;22.80;99.90
18043;DHT22;9146;48.074;11.968;2023-07-24T09:41:39;22.80;99.90
18043;DHT22;9146;48.074;11.968;2023-07-24T09:44:07;23.00;99.90
18043;DHT22;9146;48.074;11.968;2023-07-24T09:46:35;23.20;99.90
18043;DHT22;9146;48.074;11.968;2023-07-24T09:49:02;23.50;99.90
18043;DHT22;9146;48.074;11.968;2023-07-24T09:51:29;23.90;99.90
18043;DHT22;9146;48.074;11.968;2023-07-24T09:54:02;24.40;99.90
18043;DHT22;9146;48.074;11.968;2023-07-24T09:56:32;24.70;99.90
18043;DHT22;9146;48.074;11.968;2023-07-24T09:59:00;25.00;99.90
18043;DHT22;9146;48.074;11.968;2023-07-24T10:01:31;25.30;99.90
18043;DHT22;9146;48.074;11.968;2023-07-24T10:03:59;25.40;99.90
18043;DHT22;9146;48.074;11.968;2023-07-24T10:06:28;25.50;99.90
18043;DHT22;9146;48.074;11.968;2023-07-24T10:08:56;25.60;99.90
18043;DHT22;9146;48.074;11.968;2023-07-24T10:11:24;25.70;99.90
18043;DHT22;9146;48.074;11.968;2023-07-24T10:13:53;25.80;99.90
18043;DHT22;9146;48.074;11.968;2023-07-24T10:16:20;26.00;99.90
18043;DHT22;9146;48.074;11.968;2023-07-24T10:18:48;26.20;99.90
18043;DHT22;9146;48.074;11.968;2023-07-24T10:21:15;26.40;99.90
18043;DHT22;9146;48.074;11.968;2023-07-24T10:23:45;26.70;99.90
18043;DHT22;9146;48.074;11.968;2023-07-24T10:26:13;26.90;99.90
18043;DHT22;9146;48.074;11.968;2023-07-24T10:28:41;27.20;99.90
18043;DHT22;9146;48.074;11.968;2023-07-24T10:31:19;27.50;99.90
18043;DHT22;9146;48.074;11.968;2023-07-24T10:33:48;27.60;99.90
18043;DHT22;9146;48.074;11.968;2023-07-24T10:36:17;27.80;99.90
18043;DHT22;9146;48.074;11.968;2023-07-24T10:38:46;28.20;99.90
18043;DHT22;9146;48.074;11.968;2023-07-24T10:41:13;28.50;99.90
18043;DHT22;9146;48.074;11.968;2023-07-24T10:43:42;28.70;99.90
18043;DHT22;9146;48.074;11.968;2023-07-24T10:46:09;28.90;98.10
18043;DHT22;9146;48.074;11.968;2023-07-24T10:48:37;28.90;97.90
18043;DHT22;9146;48.074;11.968;2023-07-24T10:51:10;29.10;97.40
18043;DHT22;9146;48.074;11.968;2023-07-24T10:53:42;29.20;96.80
18043;DHT22;9146;48.074;11.968;2023-07-24T10:56:09;29.30;96.70
18043;DHT22;9146;48.074;11.968;2023-07-24T10:58:36;29.40;96.50
18043;DHT22;9146;48.074;11.968;2023-07-24T11:01:04;29.50;96.20
18043;DHT22;9146;48.074;11.968;2023-07-24T11:03:31;29.50;94.60
18043;DHT22;9146;48.074;11.968;2023-07-24T11:05:59;29.50;94.10
18043;DHT22;9146;48.074;11.968;2023-07-24T11:08:27;29.40;93.00
18043;DHT22;9146;48.074;11.968;2023-07-24T11:10:56;29.30;92.90
18043;DHT22;9146;48.074;11.968;2023-07-24T11:13:25;29.30;93.40
18043;DHT22;9146;48.074;11.968;2023-07-24T11:15:53;29.40;93.80
18043;DHT22;9146;48.074;11.968;2023-07-24T11:18:21;29.20;93.80
18043;DHT22;9146;48.074;11.968;2023-07-24T11:20:53;29.40;93.70
18043;DHT22;9146;48.074;11.968;2023-07-24T11:23:21;29.50;93.90
18043;DHT22;9146;48.074;11.968;2023-07-24T11:25:52;29.40;94.00
18043;DHT22;9146;48.074;11.968;2023-07-24T11:28:19;29.40;94.10
18043;DHT22;9146;48.074;11.968;2023-07-24T11:30:46;29.30;92.90
18043;DHT22;9146;48.074;11.968;2023-07-24T11:33:15;29.30;93.00
18043;DHT22;9146;48.074;11.968;2023-07-24T11:35:43;29.20;91.70
18043;DHT22;9146;48.074;11.968;2023-07-24T11:38:10;29.30;91.70
18043;DHT22;9146;48.074;11.968;2023-07-24T11:40:38;29.40;91.90
18043;DHT22;9146;48.074;11.968;2023-07-24T11:43:15;29.40;92.00
18043;DHT22;9146;48.074;11.968;2023-07-24T11:45:43;29.50;92.00
18043;DHT22;9146;48.074;11.968;2023-07-24T11:48:11;29.70;91.50
18043;DHT22;9146;48.074;11.968;2023-07-24T11:50:42;29.70;91.10
18043;DHT22;9146;48.074;11.968;2023-07-24T11:53:19;29.80;91.10
18043;DHT22;9146;48.074;11.968;2023-07-24T11:55:47;29.90;91.10
18043;DHT22;9146;48.074;11.968;2023-07-24T11:58:17;29.90;91.10
18043;DHT22;9146;48.074;11.968;2023-07-24T12:00:45;30.00;90.90
18043;DHT22;9146;48.074;11.968;2023-07-24T12:03:12;30.10;91.20
18043;DHT22;9146;48.074;11.968;2023-07-24T12:05:39;30.20;90.80
18043;DHT22;9146;48.074;11.968;2023-07-24T12:08:07;30.10;90.30
18043;DHT22;9146;48.074;11.968;2023-07-24T12:10:36;30.10;89.60
18043;DHT22;9146;48.074;11.968;2023-07-24T12:13:03;30.10;88.80
18043;DHT22;9146;48.074;11.968;2023-07-24T12:15:31;30.20;89.20
18043;DHT22;9146;48.074;11.968;2023-07-24T12:17:59;30.20;88.50
18043;DHT22;9146;48.074;11.968;2023-07-24T12:20:26;30.10;87.80
18043;DHT22;9146;48.074;11.968;2023-07-24T12:22:54;29.90;88.10
18043;DHT22;9146;48.074;11.968;2023-07-24T12:25:21;29.70;88.20
18043;DHT22;9146;48.074;11.968;2023-07-24T12:27:48;29.70;87.30
18043;DHT22;9146;48.074;11.968;2023-07-24T12:30:15;29.60;86.70
18043;DHT22;9146;48.074;11.968;2023-07-24T12:32:43;29.80;87.80
18043;DHT22;9146;48.074;11.968;2023-07-24T12:35:11;29.80;87.20
18043;DHT22;9146;48.074;11.968;2023-07-24T12:37:38;29.80;85.60
18043;DHT22;9146;48.074;11.968;2023-07-24T12:40:07;29.70;84.90
18043;DHT22;9146;48.074;11.968;2023-07-24T12:42:35;29.60;83.90
18043;DHT22;9146;48.074;11.968;2023-07-24T12:45:02;29.50;84.70
18043;DHT22;9146;48.074;11.968;2023-07-24T12:47:30;29.10;85.20
18043;DHT22;9146;48.074;11.968;2023-07-24T12:49:58;28.70;85.80
18043;DHT22;9146;48.074;11.968;2023-07-24T12:52:25;28.30;87.10
18043;DHT22;9146;48.074;11.968;2023-07-24T12:54:53;27.80;89.20
18043;DHT22;9146;48.074;11.968;2023-07-24T12:57:19;27.40;91.10
18043;DHT22;9146;48.074;11.968;2023-07-24T12:59:48;26.80;93.70
18043;DHT22;9146;48.074;11.968;2023-07-24T13:02:15;25.40;99.90
18043;DHT22;9146;48.074;11.968;2023-07-24T13:04:42;22.60;99.90
18043;DHT22;9146;48.074;11.968;2023-07-24T13:07:11;20.80;99.90
18043;DHT22;9146;48.074;11.968;2023-07-24T13:09:40;19.60;99.90
18043;DHT22;9146;48.074;11.968;2023-07-24T13:12:08;18.90;99.90
18043;DHT22;9146;48.074;11.968;2023-07-24T13:14:35;18.60;99.90
18043;DHT22;9146;48.074;11.968;2023-07-24T13:17:03;18.30;99.90
18043;DHT22;9146;48.074;11.968;2023-07-24T13:19:29;18.10;99.90
18043;DHT22;9146;48.074;11.968;2023-07-24T13:21:56;18.10;99.90
18043;DHT22;9146;48.074;11.968;2023-07-24T13:24:25;18.00;99.90
18043;DHT22;9146;48.074;11.968;2023-07-24T13:26:52;17.90;99.90
18043;DHT22;9146;48.074;11.968;2023-07-24T13:29:19;18.00;99.90
18043;DHT22;9146;48.074;11.968;2023-07-24T13:31:46;17.90;99.90
18043;DHT22;9146;48.074;11.968;2023-07-24T13:34:13;17.90;99.90
18043;DHT22;9146;48.074;11.968;2023-07-24T13:36:39;17.90;99.90
18043;DHT22;9146;48.074;11.968;2023-07-24T13:39:06;17.80;99.90
18043;DHT22;9146;48.074;11.968;2023-07-24T13:41:35;17.80;99.90
18043;DHT22;9146;48.074;11.968;2023-07-24T13:44:03;17.80;99.90
18043;DHT22;9146;48.074;11.968;2023-07-24T13:46:30;17.80;99.90
18043;DHT22;9146;48.074;11.968;2023-07-24T13:48:57;17.80;99.90
18043;DHT22;9146;48.074;11.968;2023-07-24T13:51:24;17.80;99.90
18043;DHT22;9146;48.074;11.968;2023-07-24T13:53:51;17.90;99.90
18043;DHT22;9146;48.074;11.968;2023-07-24T13:56:19;17.90;99.90
18043;DHT22;9146;48.074;11.968;2023-07-24T13:58:49;18.00;99.90
18043;DHT22;9146;48.074;11.968;2023-07-24T14:01:16;18.00;99.90
18043;DHT22;9146;48.074;11.968;2023-07-24T14:03:43;18.10;99.90
18043;DHT22;9146;48.074;11.968;2023-07-24T14:06:10;18.30;99.90
18043;DHT22;9146;48.074;11.968;2023-07-24T14:08:38;18.50;99.90
18043;DHT22;9146;48.074;11.968;2023-07-24T14:11:05;18.60;99.90
18043;DHT22;9146;48.074;11.968;2023-07-24T14:13:31;18.80;99.90
18043;DHT22;9146;48.074;11.968;2023-07-24T14:16:00;19.00;99.90
18043;DHT22;9146;48.074;11.968;2023-07-24T14:18:27;19.20;99.90
18043;DHT22;9146;48.074;11.968;2023-07-24T14:20:54;19.50;99.90
18043;DHT22;9146;48.074;11.968;2023-07-24T14:23:22;19.80;99.90
18043;DHT22;9146;48.074;11.968;2023-07-24T14:25:49;20.00;99.90
18043;DHT22;9146;48.074;11.968;2023-07-24T14:28:16;20.10;99.90
18043;DHT22;9146;48.074;11.968;2023-07-24T14:30:43;20.20;99.90
18043;DHT22;9146;48.074;11.968;2023-07-24T14:33:11;20.20;99.90
18043;DHT22;9146;48.074;11.968;2023-07-24T14:35:38;20.20;99.90
18043;DHT22;9146;48.074;11.968;2023-07-24T14:38:05;20.40;99.90
18043;DHT22;9146;48.074;11.968;2023-07-24T14:40:32;20.70;99.90
18043;DHT22;9146;48.074;11.968;2023-07-24T14:42:59;20.90;99.90
18043;DHT22;9146;48.074;11.968;2023-07-24T14:45:26;21.10;99.90
18043;DHT22;9146;48.074;11.968;2023-07-24T14:47:53;21.30;99.90
18043;DHT22;9146;48.074;11.968;2023-07-24T14:50:21;21.50;99.90
18043;DHT22;9146;48.074;11.968;2023-07-24T14:52:48;21.70;99.90
18043;DHT22;9146;48.074;11.968;2023-07-24T14:55:15;21.90;99.90
18043;DHT22;9146;48.074;11.968;2023-07-24T14:57:42;22.20;99.90
18043;DHT22;9146;48.074;11.968;2023-07-24T15:00:10;22.40;99.90
18043;DHT22;9146;48.074;11.968;2023-07-24T15:02:37;22.50;99.90
18043;DHT22;9146;48.074;11.968;2023-07-24T15:05:05;22.50;99.90
18043;DHT22;9146;48.074;11.968;2023-07-24T15:07:33;22.60;99.90
18043;DHT22;9146;48.074;11.968;2023-07-24T15:10:00;22.60;99.90
18043;DHT22;9146;48.074;11.968;2023-07-24T15:12:27;22.60;99.90
18043;DHT22;9146;48.074;11.968;2023-07-24T15:14:56;22.50;99.90
18043;DHT22;9146;48.074;11.968;2023-07-24T15:17:23;22.60;99.90
18043;DHT22;9146;48.074;11.968;2023-07-24T15:19:49;22.70;99.90
18043;DHT22;9146;48.074;11.968;2023-07-24T15:22:16;22.80;99.90
18043;DHT22;9146;48.074;11.968;2023-07-24T15:24:44;22.80;99.90
18043;DHT22;9146;48.074;11.968;2023-07-24T15:27:12;22.80;99.90
18043;DHT22;9146;48.074;11.968;2023-07-24T15:29:39;22.80;99.90
18043;DHT22;9146;48.074;11.968;2023-07-24T15:32:07;22.70;99.90
18043;DHT22;9146;48.074;11.968;2023-07-24T15:34:34;22.70;99.90